createdAt,value
2024-04-18T00:01:27.834Z,5.15
2024-04-18T00:04:11.714Z,1.85
2024-04-18T00:06:58.284Z,3.88
2024-04-18T00:09:42.164Z,1.77
2024-04-18T00:12:31.325Z,3.05
2024-04-18T00:15:17.901Z,2.15
2024-04-18T00:18:04.527Z,5.20
2024-04-18T00:20:48.354Z,5.00
2024-04-18T00:23:34.966Z,4.68
2024-04-18T00:26:18.786Z,1.73
2024-04-18T00:29:07.840Z,3.85
2024-04-18T00:31:51.638Z,4.70
2024-04-18T00:34:38.125Z,1.48
2024-04-18T00:37:21.907Z,1.13
2024-04-18T00:40:09.251Z,1.00
2024-04-18T00:42:53.074Z,2.83
2024-04-18T00:45:42.391Z,3.05
2024-04-18T00:48:28.051Z,1.70
2024-04-18T00:51:14.901Z,2.55
2024-04-18T00:53:59.367Z,2.08
2024-04-18T00:56:48.370Z,3.03
2024-04-18T00:59:32.306Z,5.30
2024-04-18T01:02:23.559Z,4.53
2024-04-18T01:05:07.626Z,1.92
2024-04-18T01:07:54.181Z,2.53
2024-04-18T01:10:37.967Z,2.35
2024-04-18T01:13:24.516Z,5.53
2024-04-18T01:16:08.589Z,1.48
2024-04-18T01:18:57.753Z,1.58
2024-04-18T01:21:41.625Z,3.10
2024-04-18T01:24:28.039Z,2.70
2024-04-18T01:27:14.601Z,2.80
2024-04-18T01:30:01.553Z,2.70
2024-04-18T01:32:45.330Z,4.47
2024-04-18T01:35:31.804Z,2.05
2024-04-18T01:38:15.558Z,1.67
2024-04-18T01:43:48.543Z,1.65
2024-04-18T01:46:34.932Z,3.22
2024-04-18T01:49:18.640Z,4.10
2024-04-18T01:52:05.129Z,1.27
2024-04-18T01:54:48.896Z,1.27
2024-04-18T01:57:35.320Z,1.60
2024-04-18T02:00:21.867Z,1.20
2024-04-18T02:03:08.810Z,8.05
2024-04-18T02:05:52.629Z,2.58
2024-04-18T02:08:39.144Z,3.55
2024-04-18T02:11:23.329Z,2.03
2024-04-18T02:14:09.797Z,3.00
2024-04-18T02:16:56.297Z,2.65
2024-04-18T02:19:42.744Z,7.60
2024-04-18T02:22:26.515Z,1.45
2024-04-18T02:25:13.702Z,1.60
2024-04-18T02:27:57.496Z,3.72
2024-04-18T02:30:43.966Z,2.33
2024-04-18T02:33:30.724Z,2.30
2024-04-18T02:36:17.165Z,1.60
2024-04-18T02:39:01.242Z,2.13
2024-04-18T02:41:47.628Z,2.40
2024-04-18T02:44:31.361Z,2.85
2024-04-18T02:47:19.018Z,1.98
2024-04-18T02:50:05.741Z,4.15
2024-04-18T02:52:52.188Z,2.35
2024-04-18T02:55:36.674Z,2.75
2024-04-18T02:58:23.011Z,3.33
2024-04-18T03:01:07.007Z,2.10
2024-04-18T03:03:53.621Z,1.83
2024-04-18T03:06:40.364Z,3.17
2024-04-18T03:09:26.790Z,4.25
2024-04-18T03:12:13.281Z,2.40
2024-04-18T03:14:57.128Z,4.68
2024-04-18T03:17:44.927Z,4.25
2024-04-18T03:20:30.440Z,3.50
2024-04-18T03:23:19.576Z,3.65
2024-04-18T03:26:03.366Z,2.97
2024-04-18T03:28:49.796Z,4.43
2024-04-18T03:31:33.625Z,2.50
2024-04-18T03:34:20.048Z,5.45
2024-04-18T03:37:06.436Z,2.92
2024-04-18T03:39:55.728Z,2.47
2024-04-18T03:42:42.175Z,2.83
2024-04-18T03:45:28.716Z,3.30
2024-04-18T03:48:15.093Z,3.85
2024-04-18T03:50:58.937Z,2.80
2024-04-18T03:53:45.379Z,4.63
2024-04-18T03:56:35.334Z,7.28
2024-04-18T03:59:19.285Z,6.90
2024-04-18T04:02:05.733Z,6.80
2024-04-18T04:04:51.593Z,4.63
2024-04-18T04:07:38.138Z,9.15
2024-04-18T04:10:21.891Z,11.23
2024-04-18T04:13:11.123Z,5.68
2024-04-18T04:15:57.415Z,8.13
2024-04-18T04:18:44.628Z,5.00
2024-04-18T04:21:28.692Z,8.38
2024-04-18T04:24:15.563Z,5.40
2024-04-18T04:26:59.611Z,9.77
2024-04-18T04:29:49.037Z,6.85
2024-04-18T04:32:33.086Z,7.15
2024-04-18T04:35:19.612Z,5.05
2024-04-18T04:38:03.560Z,6.43
2024-04-18T04:40:50.023Z,11.38
2024-04-18T04:43:34.121Z,6.28
2024-04-18T04:46:23.287Z,5.10
2024-04-18T04:49:07.241Z,6.30
2024-04-18T04:51:54.595Z,7.43
2024-04-18T04:54:38.949Z,3.90
2024-04-18T04:57:26.314Z,4.30
2024-04-18T05:00:11.090Z,8.73
2024-04-18T05:03:00.667Z,5.07
2024-04-18T05:05:44.715Z,8.45
2024-04-18T05:08:31.177Z,4.13
2024-04-18T05:11:15.022Z,4.28
2024-04-18T05:14:01.937Z,3.45
2024-04-18T05:16:48.329Z,4.32
2024-04-18T05:19:34.870Z,5.03
2024-04-18T05:22:21.315Z,5.35
2024-04-18T05:25:06.105Z,7.50
2024-04-18T05:28:05.255Z,5.30
2024-04-18T05:31:05.087Z,7.55
2024-04-18T05:33:54.245Z,5.78
2024-04-18T05:36:49.913Z,7.10
2024-04-18T05:39:36.505Z,4.80
2024-04-18T05:42:22.952Z,6.25
2024-04-18T05:45:10.149Z,5.90
2024-04-18T05:47:56.862Z,7.93
2024-04-18T05:50:44.031Z,6.18
2024-04-18T05:53:33.189Z,6.43
2024-04-18T05:56:19.727Z,4.68
2024-04-18T05:59:06.228Z,6.82
2024-04-18T06:01:52.680Z,5.70
2024-04-18T06:04:39.353Z,7.93
2024-04-18T06:07:25.741Z,4.45
2024-04-18T06:10:14.912Z,8.82
2024-04-18T06:13:01.450Z,3.85
2024-04-18T06:15:49.006Z,5.97
2024-04-18T06:18:36.190Z,6.22
2024-04-18T06:21:22.761Z,8.60
2024-04-18T06:24:10.061Z,6.15
2024-04-18T06:26:59.350Z,7.57
2024-04-18T06:29:46.233Z,5.50
2024-04-18T06:32:32.882Z,4.80
2024-04-18T06:35:19.720Z,5.78
2024-04-18T06:38:06.451Z,6.72
2024-04-18T06:40:53.366Z,6.18
2024-04-18T06:43:42.498Z,3.88
2024-04-18T06:46:28.934Z,3.38
2024-04-18T06:49:15.406Z,3.80
2024-04-18T06:52:02.072Z,3.92
2024-04-18T06:54:48.521Z,4.28
2024-04-18T06:57:35.536Z,4.28
2024-04-18T07:00:24.957Z,3.05
2024-04-18T07:03:14.026Z,5.82
2024-04-18T07:06:00.590Z,4.13
2024-04-18T07:08:47.383Z,4.32
2024-04-18T07:11:33.986Z,3.20
2024-04-18T07:14:20.364Z,3.92
2024-04-18T07:17:09.634Z,3.17
2024-04-18T07:19:56.195Z,3.70
2024-04-18T07:22:43.527Z,5.13
2024-04-18T07:25:33.362Z,4.22
2024-04-18T07:28:20.807Z,3.40
2024-04-18T07:31:10.607Z,3.63
2024-04-18T07:34:00.769Z,3.55
2024-04-18T07:37:03.593Z,4.40
2024-04-18T07:39:50.169Z,3.92
2024-04-18T07:42:36.711Z,3.38
2024-04-18T07:45:23.693Z,2.78
2024-04-18T07:48:11.062Z,5.90
2024-04-18T07:51:00.662Z,2.95
2024-04-18T07:53:47.234Z,3.38
2024-04-18T07:56:34.268Z,3.35
2024-04-18T07:59:21.493Z,4.22
2024-04-18T08:02:10.752Z,3.83
2024-04-18T08:05:01.858Z,11.27
2024-04-18T08:07:56.765Z,3.80
2024-04-18T08:11:01.140Z,4.40
2024-04-18T08:13:55.332Z,5.75
2024-04-18T08:16:45.095Z,3.38
2024-04-18T08:19:31.624Z,3.35
2024-04-18T08:22:18.124Z,3.80
2024-04-18T08:25:08.154Z,2.80
2024-04-18T08:27:58.101Z,8.07
2024-04-18T08:30:44.608Z,3.95
2024-04-18T08:33:31.128Z,5.82
2024-04-18T08:36:17.850Z,3.22
2024-04-18T08:39:04.434Z,5.78
2024-04-18T08:41:55.358Z,4.05
2024-04-18T08:44:41.873Z,3.13
2024-04-18T08:47:32.822Z,5.47
2024-04-18T08:50:20.761Z,4.78
2024-04-18T08:53:09.306Z,3.90
2024-04-18T08:56:01.086Z,3.58
2024-04-18T08:58:50.288Z,4.00
2024-04-18T09:01:37.495Z,2.95
2024-04-18T09:04:24.179Z,2.28
2024-04-18T09:07:10.772Z,2.45
2024-04-18T09:10:06.866Z,3.17
2024-04-18T09:12:56.847Z,2.33
2024-04-18T09:15:49.269Z,4.85
2024-04-18T09:18:37.503Z,4.32
2024-04-18T09:21:24.383Z,4.35
2024-04-18T09:24:11.412Z,4.20
2024-04-18T09:26:59.523Z,8.10
2024-04-18T09:29:47.973Z,4.32
2024-04-18T09:32:37.408Z,5.18
2024-04-18T09:35:25.594Z,4.78
2024-04-18T09:38:16.584Z,3.55
2024-04-18T09:41:06.514Z,4.65
2024-04-18T09:44:03.884Z,6.07
2024-04-18T09:46:52.094Z,4.68
2024-04-18T09:49:43.036Z,7.55
2024-04-18T09:52:30.506Z,5.40
2024-04-18T09:55:17.811Z,10.10
2024-04-18T09:58:06.751Z,6.28
2024-04-18T10:00:54.069Z,7.10
2024-04-18T10:03:41.386Z,5.20
2024-04-18T10:06:37.113Z,5.45
2024-04-18T10:09:27.110Z,6.43
2024-04-18T10:12:14.577Z,6.43
2024-04-18T10:15:01.535Z,8.55
2024-04-18T10:17:48.203Z,6.78
2024-04-18T10:20:37.776Z,6.88
2024-04-18T10:23:27.031Z,10.70
2024-04-18T10:26:17.780Z,9.23
2024-04-18T10:29:05.046Z,10.65
2024-04-18T10:31:51.718Z,6.45
2024-04-18T10:34:38.806Z,5.85
2024-04-18T10:37:27.372Z,10.63
2024-04-18T10:40:19.345Z,10.80
2024-04-18T10:43:18.776Z,9.95
2024-04-18T10:46:08.737Z,11.73
2024-04-18T10:48:58.422Z,10.50
2024-04-18T10:51:46.212Z,14.23
2024-04-18T10:54:32.924Z,13.70
2024-04-18T10:57:23.069Z,7.43
2024-04-18T11:00:11.416Z,11.40
2024-04-18T11:03:00.232Z,13.50
2024-04-18T11:05:47.637Z,9.80
2024-04-18T11:08:35.464Z,15.80
2024-04-18T11:11:28.519Z,9.90
2024-04-18T11:14:18.546Z,12.07
2024-04-18T11:17:05.184Z,13.23
2024-04-18T11:19:52.863Z,29.25
2024-04-18T11:22:43.014Z,13.60
2024-04-18T11:25:32.461Z,8.30
2024-04-18T11:28:19.079Z,10.57
2024-04-18T11:31:09.082Z,8.90
2024-04-18T11:33:57.952Z,6.55
2024-04-18T11:36:44.629Z,9.00
2024-04-18T11:39:32.219Z,6.97
2024-04-18T11:42:18.786Z,12.07
2024-04-18T11:45:05.379Z,8.88
2024-04-18T11:48:00.127Z,10.02
2024-04-18T11:50:46.966Z,7.15
2024-04-18T11:53:33.563Z,10.18
2024-04-18T11:56:20.124Z,8.65
2024-04-18T11:59:06.865Z,9.27
2024-04-18T12:01:53.564Z,10.30
2024-04-18T12:04:42.848Z,9.23
2024-04-18T12:07:29.340Z,8.63
2024-04-18T12:10:15.831Z,7.15
2024-04-18T12:13:02.454Z,8.18
2024-04-18T12:15:48.897Z,7.00
2024-04-18T12:18:35.490Z,8.15
2024-04-18T12:21:24.792Z,8.18
2024-04-18T12:24:11.560Z,6.57
2024-04-18T12:26:58.210Z,6.70
2024-04-18T12:29:48.295Z,5.68
2024-04-18T12:32:34.961Z,6.32
2024-04-18T12:35:21.552Z,7.10
2024-04-18T12:38:10.877Z,5.18
2024-04-18T12:40:57.421Z,4.78
2024-04-18T12:43:43.968Z,8.80
2024-04-18T12:46:31.542Z,5.72
2024-04-18T12:49:18.378Z,5.45
2024-04-18T12:52:05.237Z,6.43
2024-04-18T12:54:54.943Z,3.72
2024-04-18T12:57:41.738Z,6.20
2024-04-18T13:00:28.996Z,6.90
2024-04-18T13:03:16.319Z,8.20
2024-04-18T13:06:03.229Z,8.45
2024-04-18T13:08:49.791Z,5.97
2024-04-18T13:11:39.224Z,6.82
2024-04-18T13:14:25.772Z,7.65
2024-04-18T13:17:12.341Z,8.38
2024-04-18T13:19:59.848Z,3.70
2024-04-18T13:22:46.548Z,5.97
2024-04-18T13:25:33.003Z,6.47
2024-04-18T13:28:22.577Z,9.05
2024-04-18T13:31:13.221Z,5.90
2024-04-18T13:34:00.416Z,6.57
2024-04-18T13:36:47.549Z,6.25
2024-04-18T13:39:34.712Z,9.27
2024-04-18T13:42:21.545Z,10.30
2024-04-18T13:45:11.154Z,11.30
2024-04-18T13:47:57.875Z,13.00
2024-04-18T13:50:44.641Z,8.30
2024-04-18T13:53:31.133Z,10.05
2024-04-18T13:56:17.762Z,9.70
2024-04-18T13:59:04.268Z,7.28
2024-04-18T14:01:53.514Z,7.78
2024-04-18T14:04:40.187Z,11.75
2024-04-18T14:07:26.693Z,11.60
2024-04-18T14:10:13.370Z,7.90
2024-04-18T14:12:59.847Z,8.63
2024-04-18T14:16:06.768Z,12.43
2024-04-18T14:18:53.573Z,7.10
2024-04-18T14:21:40.037Z,9.48
2024-04-18T14:24:26.758Z,9.77
2024-04-18T14:27:13.986Z,9.70
2024-04-18T14:30:00.544Z,9.02
2024-04-18T14:32:47.340Z,6.95
2024-04-18T14:35:36.709Z,4.38
2024-04-18T14:38:23.942Z,5.88
2024-04-18T14:41:12.478Z,9.70
2024-04-18T14:44:01.010Z,9.45
2024-04-18T14:46:47.923Z,14.20
2024-04-18T14:49:35.988Z,9.95
2024-04-18T14:52:25.414Z,13.20
2024-04-18T14:55:11.988Z,14.77
2024-04-18T14:57:58.562Z,12.98
2024-04-18T15:00:45.182Z,8.32
2024-04-18T15:03:31.948Z,6.10
2024-04-18T15:06:18.367Z,8.63
2024-04-18T15:09:07.868Z,6.30
2024-04-18T15:11:54.238Z,7.95
2024-04-18T15:14:41.076Z,9.80
2024-04-18T15:17:27.742Z,13.57
2024-04-18T15:20:14.301Z,12.18
2024-04-18T15:23:00.969Z,16.58
2024-04-18T15:25:50.191Z,10.98
2024-04-18T15:28:38.892Z,7.38
2024-04-18T15:31:26.225Z,10.40
2024-04-18T15:34:13.555Z,11.57
2024-04-18T15:36:59.978Z,9.00
2024-04-18T15:39:46.811Z,9.63
2024-04-18T15:42:36.174Z,9.23
2024-04-18T15:45:22.672Z,12.13
2024-04-18T15:48:09.941Z,14.98
2024-04-18T15:50:56.604Z,13.70
2024-04-18T15:53:42.946Z,13.80
2024-04-18T15:56:29.518Z,19.35
2024-04-18T15:59:18.621Z,9.93
2024-04-18T16:02:09.747Z,10.13
2024-04-18T16:04:56.944Z,12.00
2024-04-18T16:07:43.504Z,8.82
2024-04-18T16:10:29.864Z,11.88
2024-04-18T16:13:16.421Z,10.27
2024-04-18T16:16:06.942Z,8.40
2024-04-18T16:18:54.311Z,7.55
2024-04-18T16:21:40.813Z,7.70
2024-04-18T16:24:27.360Z,11.15
2024-04-18T16:27:13.767Z,8.75
2024-04-18T16:30:00.283Z,8.82
2024-04-18T16:32:50.652Z,9.70
2024-04-18T16:35:37.672Z,8.18
2024-04-18T16:38:24.169Z,7.63
2024-04-18T16:41:10.638Z,8.05
2024-04-18T16:43:57.236Z,7.30
2024-04-18T16:46:43.681Z,8.52
2024-04-18T16:49:32.859Z,7.85
2024-04-18T16:52:19.393Z,9.35
2024-04-18T16:55:06.266Z,7.68
2024-04-18T16:57:52.675Z,8.80
2024-04-18T17:00:39.434Z,14.65
2024-04-18T17:03:26.406Z,10.23
2024-04-18T17:06:15.950Z,10.52
2024-04-18T17:09:02.986Z,11.23
2024-04-18T17:11:49.544Z,11.55
2024-04-18T17:14:36.055Z,11.93
2024-04-18T17:17:22.778Z,6.75
2024-04-18T17:20:10.424Z,9.93
2024-04-18T17:22:59.885Z,13.68
2024-04-18T17:25:52.105Z,11.18
2024-04-18T17:28:39.446Z,12.85
2024-04-18T17:31:26.023Z,8.23
2024-04-18T17:34:14.322Z,7.25
2024-04-18T17:37:00.917Z,8.75
2024-04-18T17:39:53.298Z,8.90
2024-04-18T17:42:40.015Z,10.77
2024-04-18T17:45:26.827Z,9.73
2024-04-18T17:48:14.215Z,7.93
2024-04-18T17:51:01.127Z,7.88
2024-04-18T17:53:47.893Z,11.68
2024-04-18T17:56:37.389Z,6.90
2024-04-18T17:59:25.758Z,9.23
2024-04-18T18:02:12.630Z,7.13
2024-04-18T18:04:59.712Z,6.57
2024-04-18T18:07:46.723Z,8.23
2024-04-18T18:10:35.269Z,7.57
2024-04-18T18:13:24.793Z,6.22
2024-04-18T18:16:12.335Z,5.38
2024-04-18T18:18:59.630Z,8.98
2024-04-18T18:21:46.601Z,6.25
2024-04-18T18:24:37.711Z,5.57
2024-04-18T18:27:24.651Z,5.38
2024-04-18T18:30:12.498Z,6.30
2024-04-18T18:32:59.687Z,21.02
2024-04-18T18:35:47.100Z,7.20
2024-04-18T18:38:34.114Z,5.63
2024-04-18T18:41:18.331Z,6.32
2024-04-18T18:46:52.008Z,6.43
2024-04-18T18:49:38.860Z,6.38
2024-04-18T18:52:24.209Z,8.07
2024-04-18T18:55:14.120Z,7.13
2024-04-18T18:58:00.986Z,6.90
2024-04-18T19:00:48.012Z,5.93
2024-04-18T19:03:35.074Z,8.02
2024-04-18T19:06:26.002Z,9.15
2024-04-18T19:09:10.292Z,8.95
2024-04-18T19:11:57.092Z,6.38
2024-04-18T19:14:41.300Z,6.40
2024-04-18T19:17:32.176Z,5.85
2024-04-18T19:20:21.897Z,4.97
2024-04-18T19:23:06.478Z,6.07
2024-04-18T19:25:53.177Z,5.43
2024-04-18T19:28:37.258Z,10.77
2024-04-18T19:31:24.256Z,6.45
2024-04-18T19:34:08.435Z,6.60
2024-04-18T19:36:58.015Z,9.88
2024-04-18T19:39:42.299Z,13.90
2024-04-18T19:42:29.826Z,6.22
2024-04-18T19:45:14.134Z,5.13
2024-04-18T19:48:01.066Z,4.38
2024-04-18T19:50:45.451Z,5.13
2024-04-18T19:53:34.728Z,4.05
2024-04-18T19:56:18.630Z,6.13
2024-04-18T19:59:05.271Z,6.22
2024-04-18T20:01:49.368Z,3.30
2024-04-18T20:07:24.142Z,4.38
2024-04-18T20:10:10.848Z,4.47
2024-04-18T20:12:57.436Z,5.32
2024-04-18T20:15:41.552Z,8.48
2024-04-18T20:21:14.361Z,6.38
2024-04-18T20:23:58.283Z,6.00
2024-04-18T20:26:47.470Z,6.05
2024-04-18T20:29:31.231Z,6.88
2024-04-18T20:32:18.136Z,4.55
2024-04-18T20:35:01.873Z,6.13
2024-04-18T20:37:48.406Z,8.43
2024-04-18T20:40:32.205Z,8.50
2024-04-18T20:43:21.287Z,4.50
2024-04-18T20:46:05.158Z,4.25
2024-04-18T20:48:51.733Z,5.30
2024-04-18T20:51:38.966Z,4.97
2024-04-18T20:54:23.341Z,5.53
2024-04-18T20:57:09.743Z,6.57
2024-04-18T20:59:56.400Z,7.60
2024-04-18T21:02:42.872Z,5.20
2024-04-18T21:05:26.771Z,5.63
2024-04-18T21:08:13.898Z,5.25
2024-04-18T21:10:57.715Z,5.88
2024-04-18T21:13:44.273Z,5.18
2024-04-18T21:16:33.569Z,5.20
2024-04-18T21:19:21.408Z,4.45
2024-04-18T21:22:08.761Z,4.78
2024-04-18T21:24:55.240Z,9.02
2024-04-18T21:27:39.076Z,8.73
2024-04-18T21:30:26.010Z,6.13
2024-04-18T21:33:12.575Z,6.70
2024-04-18T21:35:59.138Z,9.10
2024-04-18T21:38:51.091Z,7.82
2024-04-18T21:41:44.849Z,10.25
2024-04-18T21:44:28.953Z,7.07
2024-04-18T21:47:15.412Z,5.70
2024-04-18T21:50:02.069Z,8.30
2024-04-18T21:52:48.555Z,6.82
2024-04-18T21:55:32.386Z,6.68
2024-04-18T21:58:18.750Z,10.52
2024-04-18T22:01:02.736Z,6.13
2024-04-18T22:03:51.637Z,7.32
2024-04-18T22:06:38.202Z,4.82
2024-04-18T22:09:24.796Z,9.27
2024-04-18T22:12:09.012Z,4.85
2024-04-18T22:14:56.563Z,5.20
2024-04-18T22:17:40.231Z,5.43
2024-04-18T22:20:26.731Z,5.43
2024-04-18T22:23:13.160Z,5.22
2024-04-18T22:25:59.559Z,6.47
2024-04-18T22:28:43.411Z,5.95
2024-04-18T22:31:29.878Z,6.40
2024-04-18T22:34:24.712Z,5.10
2024-04-18T22:37:17.485Z,4.85
2024-04-18T22:40:07.057Z,5.30
2024-04-18T22:42:54.518Z,6.47
2024-04-18T22:45:38.338Z,7.93
2024-04-18T22:48:25.006Z,6.18
2024-04-18T22:51:09.067Z,7.50
2024-04-18T22:53:55.537Z,5.35
2024-04-18T22:56:42.033Z,12.63
2024-04-18T22:59:29.770Z,6.30
2024-04-18T23:02:13.678Z,6.93
2024-04-18T23:05:00.280Z,8.88
2024-04-18T23:07:44.064Z,5.97
2024-04-18T23:10:30.500Z,7.43
2024-04-18T23:13:18.456Z,7.57
2024-04-18T23:16:04.926Z,6.93
2024-04-18T23:18:48.710Z,6.15
2024-04-18T23:24:19.190Z,8.30
2024-04-18T23:27:05.691Z,10.88
2024-04-18T23:29:52.125Z,6.85
2024-04-18T23:32:38.668Z,5.63
2024-04-18T23:35:22.526Z,7.45
2024-04-18T23:38:09.118Z,7.53
2024-04-18T23:40:52.878Z,5.93
2024-04-18T23:43:39.426Z,5.75
2024-04-18T23:46:25.982Z,8.27
2024-04-18T23:49:12.418Z,6.70
2024-04-18T23:51:56.221Z,11.15
2024-04-18T23:54:43.908Z,7.57
2024-04-18T23:57:28.053Z,10.52
